sensor_id;sensor_type;location;lat;lon;timestamp;pressure;altitude;pressure_sealevel;temperature;humidity
11936;BME280;6027;48.576;9.180;2023-07-29T00:00:41;96481.50;;;17.83;100.00
11936;BME280;6027;48.576;9.180;2023-07-29T00:03:08;96479.28;;;17.80;100.00
11936;BME280;6027;48.576;9.180;2023-07-29T00:05:33;96485.22;;;17.82;100.00
11936;BME280;6027;48.576;9.180;2023-07-29T00:07:59;96484.78;;;17.74;100.00
11936;BME280;6027;48.576;9.180;2023-07-29T00:10:24;96483.25;;;17.78;100.00
11936;BME280;6027;48.576;9.180;2023-07-29T00:12:49;96480.22;;;17.74;100.00
11936;BME280;6027;48.576;9.180;2023-07-29T00:15:15;96483.53;;;17.65;100.00
11936;BME280;6027;48.576;9.180;2023-07-29T00:17:40;96476.75;;;17.62;100.00
11936;BME280;6027;48.576;9.180;2023-07-29T00:20:06;96465.91;;;17.57;100.00
11936;BME280;6027;48.576;9.180;2023-07-29T00:22:32;96465.91;;;17.57;100.00
11936;BME280;6027;48.576;9.180;2023-07-29T00:24:57;96472.91;;;17.58;100.00
11936;BME280;6027;48.576;9.180;2023-07-29T00:27:24;96470.56;;;17.61;100.00
11936;BME280;6027;48.576;9.180;2023-07-29T00:29:50;96468.13;;;17.60;100.00
11936;BME280;6027;48.576;9.180;2023-07-29T00:32:15;96474.06;;;17.62;100.00
11936;BME280;6027;48.576;9.180;2023-07-29T00:34:41;96467.47;;;17.65;100.00
11936;BME280;6027;48.576;9.180;2023-07-29T00:37:06;96458.63;;;17.64;100.00
11936;BME280;6027;48.576;9.180;2023-07-29T00:39:32;96469.31;;;17.64;100.00
11936;BME280;6027;48.576;9.180;2023-07-29T00:41:58;96473.38;;;17.55;100.00
11936;BME280;6027;48.576;9.180;2023-07-29T00:44:23;96473.97;;;17.45;100.00
11936;BME280;6027;48.576;9.180;2023-07-29T00:46:52;96469.09;;;17.42;100.00
11936;BME280;6027;48.576;9.180;2023-07-29T00:49:19;96465.13;;;17.45;100.00
11936;BME280;6027;48.576;9.180;2023-07-29T00:51:45;96464.44;;;17.49;100.00
11936;BME280;6027;48.576;9.180;2023-07-29T00:54:10;96466.88;;;17.51;100.00
11936;BME280;6027;48.576;9.180;2023-07-29T00:56:36;96469.31;;;17.52;100.00
11936;BME280;6027;48.576;9.180;2023-07-29T00:59:02;96469.06;;;17.54;100.00
11936;BME280;6027;48.576;9.180;2023-07-29T01:01:28;96458.94;;;17.56;100.00
11936;BME280;6027;48.576;9.180;2023-07-29T01:03:54;96457.31;;;17.55;100.00
11936;BME280;6027;48.576;9.180;2023-07-29T01:06:23;96449.28;;;17.55;100.00
11936;BME280;6027;48.576;9.180;2023-07-29T01:09:03;96449.88;;;17.57;100.00
11936;BME280;6027;48.576;9.180;2023-07-29T01:11:41;96450.69;;;17.57;100.00
11936;BME280;6027;48.576;9.180;2023-07-29T01:14:32;96443.47;;;17.58;100.00
11936;BME280;6027;48.576;9.180;2023-07-29T01:17:00;96445.09;;;17.59;100.00
11936;BME280;6027;48.576;9.180;2023-07-29T01:22:19;96443.38;;;17.65;100.00
11936;BME280;6027;48.576;9.180;2023-07-29T01:24:46;96445.09;;;17.59;100.00
11936;BME280;6027;48.576;9.180;2023-07-29T01:27:11;96437.63;;;17.61;100.00
11936;BME280;6027;48.576;9.180;2023-07-29T01:29:37;96442.75;;;17.63;100.00
11936;BME280;6027;48.576;9.180;2023-07-29T01:32:08;96453.69;;;17.61;100.00
11936;BME280;6027;48.576;9.180;2023-07-29T01:34:53;96449.03;;;17.56;100.00
11936;BME280;6027;48.576;9.180;2023-07-29T01:37:25;96452.78;;;17.55;100.00
11936;BME280;6027;48.576;9.180;2023-07-29T01:39:52;96445.31;;;17.57;100.00
11936;BME280;6027;48.576;9.180;2023-07-29T01:42:20;96449.41;;;17.60;100.00
11936;BME280;6027;48.576;9.180;2023-07-29T01:44:46;96450.34;;;17.54;100.00
11936;BME280;6027;48.576;9.180;2023-07-29T01:47:11;96447.75;;;17.59;100.00
11936;BME280;6027;48.576;9.180;2023-07-29T01:49:36;96444.84;;;17.60;100.00
11936;BME280;6027;48.576;9.180;2023-07-29T01:52:02;96444.50;;;17.57;100.00
11936;BME280;6027;48.576;9.180;2023-07-29T01:54:27;96445.56;;;17.56;100.00
11936;BME280;6027;48.576;9.180;2023-07-29T01:56:53;96444.03;;;17.60;100.00
11936;BME280;6027;48.576;9.180;2023-07-29T01:59:18;96436.00;;;17.60;100.00
11936;BME280;6027;48.576;9.180;2023-07-29T02:01:44;96442.31;;;17.66;100.00
11936;BME280;6027;48.576;9.180;2023-07-29T02:04:11;96419.84;;;17.67;100.00
11936;BME280;6027;48.576;9.180;2023-07-29T02:06:37;96420.53;;;17.62;100.00
11936;BME280;6027;48.576;9.180;2023-07-29T02:09:02;96429.16;;;17.64;100.00
11936;BME280;6027;48.576;9.180;2023-07-29T02:11:29;96419.84;;;17.67;100.00
11936;BME280;6027;48.576;9.180;2023-07-29T02:13:55;96418.81;;;17.68;100.00
11936;BME280;6027;48.576;9.180;2023-07-29T02:16:22;96417.63;;;17.64;100.00
11936;BME280;6027;48.576;9.180;2023-07-29T02:18:48;96413.69;;;17.66;100.00
11936;BME280;6027;48.576;9.180;2023-07-29T02:21:15;96408.31;;;17.66;100.00
11936;BME280;6027;48.576;9.180;2023-07-29T02:23:40;96406.22;;;17.68;100.00
11936;BME280;6027;48.576;9.180;2023-07-29T02:26:06;96405.88;;;17.65;100.00
11936;BME280;6027;48.576;9.180;2023-07-29T02:28:31;96406.69;;;17.65;100.00
11936;BME280;6027;48.576;9.180;2023-07-29T02:31:19;96408.19;;;17.61;100.00
11936;BME280;6027;48.576;9.180;2023-07-29T02:33:45;96405.50;;;17.61;100.00
11936;BME280;6027;48.576;9.180;2023-07-29T02:36:12;96408.19;;;17.61;100.00
11936;BME280;6027;48.576;9.180;2023-07-29T02:38:38;96410.06;;;17.60;100.00
11936;BME280;6027;48.576;9.180;2023-07-29T02:41:03;96408.00;;;17.51;100.00
11936;BME280;6027;48.576;9.180;2023-07-29T02:43:29;96416.72;;;17.46;100.00
11936;BME280;6027;48.576;9.180;2023-07-29T02:45:54;96414.31;;;17.33;100.00
11936;BME280;6027;48.576;9.180;2023-07-29T02:48:20;96407.25;;;17.27;100.00
11936;BME280;6027;48.576;9.180;2023-07-29T02:50:45;96408.06;;;17.27;100.00
11936;BME280;6027;48.576;9.180;2023-07-29T02:53:11;96401.06;;;17.26;100.00
11936;BME280;6027;48.576;9.180;2023-07-29T02:55:39;96401.88;;;17.27;100.00
11936;BME280;6027;48.576;9.180;2023-07-29T02:58:05;96405.72;;;17.31;100.00
11936;BME280;6027;48.576;9.180;2023-07-29T03:00:33;96412.34;;;17.29;100.00
11936;BME280;6027;48.576;9.180;2023-07-29T03:02:59;96409.91;;;17.27;100.00
11936;BME280;6027;48.576;9.180;2023-07-29T03:05:27;96401.19;;;17.32;100.00
11936;BME280;6027;48.576;9.180;2023-07-29T03:07:53;96397.34;;;17.27;100.00
11936;BME280;6027;48.576;9.180;2023-07-29T03:10:18;96381.09;;;17.06;100.00
11936;BME280;6027;48.576;9.180;2023-07-29T03:12:43;96389.56;;;17.14;100.00
11936;BME280;6027;48.576;9.180;2023-07-29T03:15:09;96393.03;;;17.15;100.00
11936;BME280;6027;48.576;9.180;2023-07-29T03:17:34;96380.25;;;17.17;100.00
11936;BME280;6027;48.576;9.180;2023-07-29T03:20:00;96376.28;;;17.19;100.00
11936;BME280;6027;48.576;9.180;2023-07-29T03:22:25;96386.75;;;17.21;100.00
11936;BME280;6027;48.576;9.180;2023-07-29T03:24:51;96374.19;;;17.21;100.00
11936;BME280;6027;48.576;9.180;2023-07-29T03:27:16;96376.88;;;17.21;100.00
11936;BME280;6027;48.576;9.180;2023-07-29T03:29:42;96371.19;;;17.18;100.00
11936;BME280;6027;48.576;9.180;2023-07-29T03:32:07;96379.22;;;17.18;100.00
11936;BME280;6027;48.576;9.180;2023-07-29T03:34:33;96380.25;;;17.17;100.00
11936;BME280;6027;48.576;9.180;2023-07-29T03:37:00;96378.97;;;17.19;100.00
11936;BME280;6027;48.576;9.180;2023-07-29T03:39:26;96379.78;;;17.20;100.00
11936;BME280;6027;48.576;9.180;2023-07-29T03:41:52;96379.78;;;17.20;100.00
11936;BME280;6027;48.576;9.180;2023-07-29T03:44:17;96380.38;;;17.22;100.00
11936;BME280;6027;48.576;9.180;2023-07-29T03:46:46;96376.88;;;17.21;100.00
11936;BME280;6027;48.576;9.180;2023-07-29T03:49:11;96381.41;;;17.21;100.00
11936;BME280;6027;48.576;9.180;2023-07-29T03:51:37;96370.72;;;17.21;100.00
11936;BME280;6027;48.576;9.180;2023-07-29T03:54:02;96378.84;;;17.26;100.00
11936;BME280;6027;48.576;9.180;2023-07-29T03:56:28;96385.47;;;17.23;100.00
11936;BME280;6027;48.576;9.180;2023-07-29T03:58:53;96384.19;;;17.26;100.00
11936;BME280;6027;48.576;9.180;2023-07-29T04:01:19;96377.47;;;17.23;100.00
11936;BME280;6027;48.576;9.180;2023-07-29T04:03:45;96376.41;;;17.24;100.00
11936;BME280;6027;48.576;9.180;2023-07-29T04:06:13;96379.22;;;17.18;100.00
11936;BME280;6027;48.576;9.180;2023-07-29T04:08:39;96373.84;;;17.18;100.00
11936;BME280;6027;48.576;9.180;2023-07-29T04:11:04;96373.63;;;17.19;100.00
11936;BME280;6027;48.576;9.180;2023-07-29T04:13:30;96369.13;;;17.08;100.00
11936;BME280;6027;48.576;9.180;2023-07-29T04:15:56;96353.97;;;17.14;100.00
11936;BME280;6027;48.576;9.180;2023-07-29T04:18:21;96355.72;;;17.20;100.00
11936;BME280;6027;48.576;9.180;2023-07-29T04:20:46;96363.84;;;17.13;100.00
11936;BME280;6027;48.576;9.180;2023-07-29T04:23:12;96370.59;;;17.16;100.00
11936;BME280;6027;48.576;9.180;2023-07-29T04:25:37;96365.59;;;17.19;100.00
11936;BME280;6027;48.576;9.180;2023-07-29T04:28:03;96361.63;;;17.22;100.00
11936;BME280;6027;48.576;9.180;2023-07-29T04:30:30;96363.63;;;17.26;100.00
11936;BME280;6027;48.576;9.180;2023-07-29T04:32:55;96368.75;;;17.16;100.00
11936;BME280;6027;48.576;9.180;2023-07-29T04:35:21;96368.53;;;17.06;100.00
11936;BME280;6027;48.576;9.180;2023-07-29T04:37:46;96361.31;;;17.07;100.00
11936;BME280;6027;48.576;9.180;2023-07-29T04:40:13;96358.88;;;17.05;100.00
11936;BME280;6027;48.576;9.180;2023-07-29T04:42:38;96354.25;;;17.01;100.00
11936;BME280;6027;48.576;9.180;2023-07-29T04:45:04;96364.00;;;17.07;100.00
11936;BME280;6027;48.576;9.180;2023-07-29T04:47:30;96360.50;;;17.06;100.00
11936;BME280;6027;48.576;9.180;2023-07-29T04:49:55;96377.81;;;17.15;100.00
11936;BME280;6027;48.576;9.180;2023-07-29T04:52:21;96372.97;;;17.12;100.00
11936;BME280;6027;48.576;9.180;2023-07-29T04:54:47;96380.47;;;17.15;100.00
11936;BME280;6027;48.576;9.180;2023-07-29T04:57:12;96379.44;;;17.16;100.00
11936;BME280;6027;48.576;9.180;2023-07-29T04:59:38;96379.56;;;17.21;100.00
11936;BME280;6027;48.576;9.180;2023-07-29T05:02:03;96380.13;;;17.23;100.00
11936;BME280;6027;48.576;9.180;2023-07-29T05:04:29;96373.84;;;17.30;100.00
11936;BME280;6027;48.576;9.180;2023-07-29T05:06:54;96383.16;;;17.27;100.00
11936;BME280;6027;48.576;9.180;2023-07-29T05:09:20;96402.78;;;17.33;100.00
11936;BME280;6027;48.576;9.180;2023-07-29T05:11:46;96462.59;;;17.15;100.00
11936;BME280;6027;48.576;9.180;2023-07-29T05:14:16;96444.13;;;16.90;100.00
11936;BME280;6027;48.576;9.180;2023-07-29T05:16:42;96402.84;;;16.98;100.00
11936;BME280;6027;48.576;9.180;2023-07-29T05:19:08;96411.09;;;16.96;100.00
11936;BME280;6027;48.576;9.180;2023-07-29T05:21:34;96392.50;;;17.01;100.00
11936;BME280;6027;48.576;9.180;2023-07-29T05:23:59;96377.72;;;17.10;100.00
11936;BME280;6027;48.576;9.180;2023-07-29T05:26:25;96383.06;;;17.10;100.00
11936;BME280;6027;48.576;9.180;2023-07-29T05:28:51;96389.56;;;17.14;100.00
11936;BME280;6027;48.576;9.180;2023-07-29T05:31:17;96397.81;;;17.24;100.00
11936;BME280;6027;48.576;9.180;2023-07-29T05:33:43;96393.72;;;17.34;100.00
11936;BME280;6027;48.576;9.180;2023-07-29T05:36:08;96392.19;;;17.38;100.00
11936;BME280;6027;48.576;9.180;2023-07-29T05:38:34;96391.38;;;17.49;100.00
11936;BME280;6027;48.576;9.180;2023-07-29T05:40:59;96403.69;;;17.50;100.00
11936;BME280;6027;48.576;9.180;2023-07-29T05:43:26;96403.22;;;17.65;100.00
11936;BME280;6027;48.576;9.180;2023-07-29T05:45:52;96403.22;;;17.65;100.00
11936;BME280;6027;48.576;9.180;2023-07-29T05:48:19;96410.88;;;17.61;100.00
11936;BME280;6027;48.576;9.180;2023-07-29T05:50:44;96408.66;;;17.58;100.00
11936;BME280;6027;48.576;9.180;2023-07-29T05:53:10;96412.16;;;17.58;100.00
11936;BME280;6027;48.576;9.180;2023-07-29T05:55:35;96408.19;;;17.61;100.00
11936;BME280;6027;48.576;9.180;2023-07-29T05:58:00;96403.97;;;17.77;100.00
11936;BME280;6027;48.576;9.180;2023-07-29T06:00:26;96399.44;;;17.77;100.00
11936;BME280;6027;48.576;9.180;2023-07-29T06:02:51;96402.09;;;17.77;100.00
11936;BME280;6027;48.576;9.180;2023-07-29T06:05:16;96393.03;;;17.78;100.00
11936;BME280;6027;48.576;9.180;2023-07-29T06:07:42;96395.69;;;17.78;100.00
11936;BME280;6027;48.576;9.180;2023-07-29T06:10:12;96389.28;;;17.79;100.00
11936;BME280;6027;48.576;9.180;2023-07-29T06:12:38;96382.88;;;17.80;100.00
11936;BME280;6027;48.576;9.180;2023-07-29T06:15:04;96383.31;;;17.89;100.00
11936;BME280;6027;48.576;9.180;2023-07-29T06:17:30;96387.06;;;17.88;100.00
11936;BME280;6027;48.576;9.180;2023-07-29T06:19:55;96393.31;;;17.93;100.00
11936;BME280;6027;48.576;9.180;2023-07-29T06:22:21;96405.81;;;17.88;100.00
11936;BME280;6027;48.576;9.180;2023-07-29T06:24:46;96396.44;;;17.90;100.00
11936;BME280;6027;48.576;9.180;2023-07-29T06:27:12;96390.03;;;17.91;100.00
11936;BME280;6027;48.576;9.180;2023-07-29T06:29:37;96397.03;;;17.92;100.00
11936;BME280;6027;48.576;9.180;2023-07-29T06:32:03;96394.50;;;17.86;100.00
11936;BME280;6027;48.576;9.180;2023-07-29T06:34:28;96384.41;;;17.76;100.00
11936;BME280;6027;48.576;9.180;2023-07-29T06:36:54;96391.72;;;17.81;100.00
11936;BME280;6027;48.576;9.180;2023-07-29T06:39:19;96385.13;;;17.72;100.00
11936;BME280;6027;48.576;9.180;2023-07-29T06:41:44;96384.75;;;17.80;100.00
11936;BME280;6027;48.576;9.180;2023-07-29T06:44:10;96385.09;;;17.83;100.00
11936;BME280;6027;48.576;9.180;2023-07-29T06:46:35;96382.75;;;17.87;100.00
11936;BME280;6027;48.576;9.180;2023-07-29T06:49:01;96385.25;;;17.93;100.00
11936;BME280;6027;48.576;9.180;2023-07-29T06:51:26;96381.06;;;17.98;100.00
11936;BME280;6027;48.576;9.180;2023-07-29T06:53:54;96396.19;;;18.04;100.00
11936;BME280;6027;48.576;9.180;2023-07-29T06:56:20;96407.72;;;18.04;100.00
11936;BME280;6027;48.576;9.180;2023-07-29T06:58:45;96424.63;;;17.93;100.00
11936;BME280;6027;48.576;9.180;2023-07-29T07:01:10;96486.38;;;17.86;100.00
11936;BME280;6027;48.576;9.180;2023-07-29T07:03:36;96513.53;;;17.78;100.00
11936;BME280;6027;48.576;9.180;2023-07-29T07:06:01;96486.53;;;17.56;100.00
11936;BME280;6027;48.576;9.180;2023-07-29T07:08:27;96458.28;;;17.49;100.00
11936;BME280;6027;48.576;9.180;2023-07-29T07:10:52;96435.69;;;17.45;100.00
11936;BME280;6027;48.576;9.180;2023-07-29T07:13:17;96436.16;;;17.42;100.00
11936;BME280;6027;48.576;9.180;2023-07-29T07:15:43;96444.53;;;17.45;100.00
11936;BME280;6027;48.576;9.180;2023-07-29T07:18:08;96459.44;;;17.41;100.00
11936;BME280;6027;48.576;9.180;2023-07-29T07:20:34;96468.06;;;17.43;100.00
11936;BME280;6027;48.576;9.180;2023-07-29T07:23:00;96458.97;;;17.44;100.00
11936;BME280;6027;48.576;9.180;2023-07-29T07:25:25;96455.72;;;17.42;100.00
11936;BME280;6027;48.576;9.180;2023-07-29T07:27:50;96450.81;;;17.51;100.00
11936;BME280;6027;48.576;9.180;2023-07-29T07:30:16;96446.72;;;17.60;100.00
11936;BME280;6027;48.576;9.180;2023-07-29T07:32:41;96443.78;;;17.73;100.00
11936;BME280;6027;48.576;9.180;2023-07-29T07:35:07;96435.88;;;17.78;100.00
11936;BME280;6027;48.576;9.180;2023-07-29T07:37:33;96444.00;;;17.83;100.00
11936;BME280;6027;48.576;9.180;2023-07-29T07:39:59;96449.38;;;17.83;100.00
11936;BME280;6027;48.576;9.180;2023-07-29T07:42:24;96423.34;;;17.67;100.00
11936;BME280;6027;48.576;9.180;2023-07-29T07:44:49;96448.22;;;17.79;100.00
11936;BME280;6027;48.576;9.180;2023-07-29T07:47:15;96439.94;;;17.81;100.00
11936;BME280;6027;48.576;9.180;2023-07-29T07:49:40;96441.22;;;17.78;100.00
11936;BME280;6027;48.576;9.180;2023-07-29T07:52:06;96435.88;;;17.78;100.00
11936;BME280;6027;48.576;9.180;2023-07-29T07:54:31;96436.69;;;17.79;100.00
11936;BME280;6027;48.576;9.180;2023-07-29T07:56:57;96434.25;;;17.77;100.00
11936;BME280;6027;48.576;9.180;2023-07-29T07:59:22;96435.06;;;17.78;100.00
11936;BME280;6027;48.576;9.180;2023-07-29T08:01:47;96435.16;;;17.83;100.00
11936;BME280;6027;48.576;9.180;2023-07-29T08:04:13;96434.59;;;17.81;100.00
11936;BME280;6027;48.576;9.180;2023-07-29T08:06:38;96438.19;;;17.86;100.00
11936;BME280;6027;48.576;9.180;2023-07-29T08:09:04;96423.41;;;17.84;100.00
11936;BME280;6027;48.576;9.180;2023-07-29T08:11:30;96429.75;;;17.94;100.00
11936;BME280;6027;48.576;9.180;2023-07-29T08:13:58;96431.38;;;17.95;100.00
11936;BME280;6027;48.576;9.180;2023-07-29T08:16:23;96429.75;;;17.94;100.00
11936;BME280;6027;48.576;9.180;2023-07-29T08:18:49;96441.84;;;17.97;100.00
11936;BME280;6027;48.576;9.180;2023-07-29T08:21:14;96429.97;;;17.93;100.00
11936;BME280;6027;48.576;9.180;2023-07-29T08:23:40;96434.84;;;18.08;100.00
11936;BME280;6027;48.576;9.180;2023-07-29T08:26:05;96438.63;;;18.12;100.00
11936;BME280;6027;48.576;9.180;2023-07-29T08:28:33;96446.19;;;18.15;100.00
11936;BME280;6027;48.576;9.180;2023-07-29T08:30:59;96444.91;;;18.17;100.00
11936;BME280;6027;48.576;9.180;2023-07-29T08:33:25;96439.22;;;18.14;100.00
11936;BME280;6027;48.576;9.180;2023-07-29T08:35:51;96448.50;;;18.23;100.00
11936;BME280;6027;48.576;9.180;2023-07-29T08:38:16;96449.16;;;18.30;100.00
11936;BME280;6027;48.576;9.180;2023-07-29T08:40:45;96455.75;;;18.39;100.00
11936;BME280;6027;48.576;9.180;2023-07-29T08:43:11;96452.50;;;18.37;100.00
11936;BME280;6027;48.576;9.180;2023-07-29T08:45:39;96449.91;;;18.42;100.00
11936;BME280;6027;48.576;9.180;2023-07-29T08:48:08;96450.78;;;18.48;100.00
11936;BME280;6027;48.576;9.180;2023-07-29T08:50:36;96458.22;;;18.57;100.00
11936;BME280;6027;48.576;9.180;2023-07-29T08:53:05;96445.97;;;18.61;100.00
11936;BME280;6027;48.576;9.180;2023-07-29T08:55:31;96453.03;;;18.68;100.00
11936;BME280;6027;48.576;9.180;2023-07-29T08:57:58;96456.28;;;18.70;100.00
11936;BME280;6027;48.576;9.180;2023-07-29T09:00:25;96454.25;;;18.77;100.00
11936;BME280;6027;48.576;9.180;2023-07-29T09:02:51;96447.94;;;18.83;100.00
11936;BME280;6027;48.576;9.180;2023-07-29T09:05:16;96441.75;;;18.99;100.00
11936;BME280;6027;48.576;9.180;2023-07-29T09:07:42;96457.25;;;18.97;100.00
11936;BME280;6027;48.576;9.180;2023-07-29T09:10:09;96450.00;;;19.14;100.00
11936;BME280;6027;48.576;9.180;2023-07-29T09:12:36;96442.03;;;19.19;100.00
11936;BME280;6027;48.576;9.180;2023-07-29T09:15:02;96415.44;;;19.18;100.00
11936;BME280;6027;48.576;9.180;2023-07-29T09:17:32;96427.06;;;19.07;100.00
11936;BME280;6027;48.576;9.180;2023-07-29T09:19:58;96435.03;;;19.18;100.00
11936;BME280;6027;48.576;9.180;2023-07-29T09:22:24;96430.75;;;19.39;100.00
11936;BME280;6027;48.576;9.180;2023-07-29T09:24:51;96433.78;;;19.43;100.00
11936;BME280;6027;48.576;9.180;2023-07-29T09:27:26;96435.31;;;19.39;100.00
11936;BME280;6027;48.576;9.180;2023-07-29T09:29:53;96434.59;;;19.43;100.00
11936;BME280;6027;48.576;9.180;2023-07-29T09:32:20;96421.88;;;19.55;100.00
11936;BME280;6027;48.576;9.180;2023-07-29T09:34:46;96419.03;;;19.67;100.00
11936;BME280;6027;48.576;9.180;2023-07-29T09:37:21;96411.06;;;19.72;100.00
11936;BME280;6027;48.576;9.180;2023-07-29T09:39:47;96417.00;;;19.74;100.00
11936;BME280;6027;48.576;9.180;2023-07-29T09:42:20;96408.06;;;19.69;100.00
11936;BME280;6027;48.576;9.180;2023-07-29T09:44:50;96401.69;;;19.75;100.00
11936;BME280;6027;48.576;9.180;2023-07-29T09:47:23;96403.38;;;19.81;100.00
11936;BME280;6027;48.576;9.180;2023-07-29T09:49:50;96422.63;;;19.73;100.00
11936;BME280;6027;48.576;9.180;2023-07-29T09:52:16;96427.34;;;19.87;100.00
11936;BME280;6027;48.576;9.180;2023-07-29T09:54:43;96427.72;;;20.23;100.00
11936;BME280;6027;48.576;9.180;2023-07-29T09:57:11;96416.81;;;20.34;100.00
11936;BME280;6027;48.576;9.180;2023-07-29T09:59:36;96398.44;;;20.26;100.00
11936;BME280;6027;48.576;9.180;2023-07-29T10:02:02;96409.50;;;20.30;100.00
11936;BME280;6027;48.576;9.180;2023-07-29T10:04:28;96407.75;;;20.41;100.00
11936;BME280;6027;48.576;9.180;2023-07-29T10:06:54;96414.91;;;20.57;100.00
11936;BME280;6027;48.576;9.180;2023-07-29T10:09:20;96407.44;;;20.69;100.00
11936;BME280;6027;48.576;9.180;2023-07-29T10:11:47;96405.16;;;20.88;100.00
11936;BME280;6027;48.576;9.180;2023-07-29T10:14:13;96417.59;;;20.94;100.00
11936;BME280;6027;48.576;9.180;2023-07-29T10:16:42;96412.31;;;21.09;100.00
11936;BME280;6027;48.576;9.180;2023-07-29T10:19:10;96412.69;;;21.23;100.00
11936;BME280;6027;48.576;9.180;2023-07-29T10:21:38;96414.88;;;21.31;100.00
11936;BME280;6027;48.576;9.180;2023-07-29T10:24:06;96414.69;;;21.48;100.00
11936;BME280;6027;48.576;9.180;2023-07-29T10:26:34;96413.63;;;21.49;100.00
11936;BME280;6027;48.576;9.180;2023-07-29T10:29:04;96412.31;;;21.56;100.00
11936;BME280;6027;48.576;9.180;2023-07-29T10:31:32;96424.78;;;21.78;100.00
11936;BME280;6027;48.576;9.180;2023-07-29T10:33:59;96413.75;;;21.74;100.00
11936;BME280;6027;48.576;9.180;2023-07-29T10:36:25;96401.91;;;21.85;100.00
11936;BME280;6027;48.576;9.180;2023-07-29T10:38:51;96409.50;;;21.93;100.00
11936;BME280;6027;48.576;9.180;2023-07-29T10:41:16;96413.84;;;22.04;100.00
11936;BME280;6027;48.576;9.180;2023-07-29T10:43:42;96406.59;;;22.15;100.00
11936;BME280;6027;48.576;9.180;2023-07-29T10:46:17;96410.41;;;22.24;100.00
11936;BME280;6027;48.576;9.180;2023-07-29T10:48:54;96411.47;;;22.38;100.00
11936;BME280;6027;48.576;9.180;2023-07-29T10:51:27;96400.44;;;22.40;100.00
11936;BME280;6027;48.576;9.180;2023-07-29T10:54:01;96407.44;;;22.41;100.00
11936;BME280;6027;48.576;9.180;2023-07-29T10:56:34;96406.91;;;22.59;100.00
11936;BME280;6027;48.576;9.180;2023-07-29T11:01:57;96408.25;;;22.72;100.00
11936;BME280;6027;48.576;9.180;2023-07-29T11:09:51;96415.53;;;22.71;100.00
11936;BME280;6027;48.576;9.180;2023-07-29T11:12:50;96409.88;;;22.63;100.00
11936;BME280;6027;48.576;9.180;2023-07-29T11:15:23;96412.31;;;22.64;100.00
11936;BME280;6027;48.576;9.180;2023-07-29T11:17:54;96417.44;;;22.76;100.00
11936;BME280;6027;48.576;9.180;2023-07-29T11:20:28;96425.03;;;22.79;100.00
11936;BME280;6027;48.576;9.180;2023-07-29T11:22:54;96423.38;;;22.73;100.00
11936;BME280;6027;48.576;9.180;2023-07-29T11:25:22;96423.63;;;22.77;100.00
11936;BME280;6027;48.576;9.180;2023-07-29T11:27:48;96421.22;;;22.70;100.00
11936;BME280;6027;48.576;9.180;2023-07-29T11:30:15;96428.22;;;22.71;100.00
11936;BME280;6027;48.576;9.180;2023-07-29T11:32:43;96418.56;;;22.85;100.00
11936;BME280;6027;48.576;9.180;2023-07-29T11:35:17;96415.56;;;22.97;100.00
11936;BME280;6027;48.576;9.180;2023-07-29T11:37:47;96412.31;;;23.00;100.00
11936;BME280;6027;48.576;9.180;2023-07-29T11:40:15;96411.25;;;22.96;94.60
11936;BME280;6027;48.576;9.180;2023-07-29T11:42:41;96416.09;;;23.04;97.86
11936;BME280;6027;48.576;9.180;2023-07-29T11:45:07;96409.06;;;23.08;97.57
11936;BME280;6027;48.576;9.180;2023-07-29T11:47:33;96419.59;;;23.15;99.60
11936;BME280;6027;48.576;9.180;2023-07-29T11:50:02;96402.59;;;23.04;94.06
11936;BME280;6027;48.576;9.180;2023-07-29T11:52:30;96400.69;;;23.15;100.00
11936;BME280;6027;48.576;9.180;2023-07-29T11:54:58;96406.34;;;23.28;100.00
11936;BME280;6027;48.576;9.180;2023-07-29T11:57:23;96409.53;;;23.30;100.00
11936;BME280;6027;48.576;9.180;2023-07-29T11:59:49;96406.56;;;23.32;100.00
11936;BME280;6027;48.576;9.180;2023-07-29T12:02:16;96403.91;;;23.22;100.00
11936;BME280;6027;48.576;9.180;2023-07-29T12:04:44;96417.41;;;23.12;97.51
11936;BME280;6027;48.576;9.180;2023-07-29T12:07:10;96400.72;;;22.99;100.00
11936;BME280;6027;48.576;9.180;2023-07-29T12:09:37;96397.75;;;22.91;100.00
11936;BME280;6027;48.576;9.180;2023-07-29T12:12:04;96396.94;;;23.00;100.00
11936;BME280;6027;48.576;9.180;2023-07-29T12:14:30;96396.09;;;23.15;100.00
11936;BME280;6027;48.576;9.180;2023-07-29T12:16:59;96397.44;;;23.13;100.00
11936;BME280;6027;48.576;9.180;2023-07-29T12:19:40;96401.22;;;23.22;100.00
11936;BME280;6027;48.576;9.180;2023-07-29T12:22:09;96392.78;;;23.38;100.00
11936;BME280;6027;48.576;9.180;2023-07-29T12:24:40;96395.97;;;23.61;100.00
11936;BME280;6027;48.576;9.180;2023-07-29T12:27:12;96386.00;;;23.56;99.76
11936;BME280;6027;48.576;9.180;2023-07-29T12:29:42;96385.97;;;23.51;100.00
11936;BME280;6027;48.576;9.180;2023-07-29T12:32:11;96390.06;;;23.43;100.00
11936;BME280;6027;48.576;9.180;2023-07-29T12:34:38;96387.66;;;23.37;100.00
11936;BME280;6027;48.576;9.180;2023-07-29T12:37:05;96397.09;;;23.39;100.00
11936;BME280;6027;48.576;9.180;2023-07-29T12:39:39;96393.59;;;23.34;100.00
11936;BME280;6027;48.576;9.180;2023-07-29T12:42:05;96393.66;;;23.24;100.00
11936;BME280;6027;48.576;9.180;2023-07-29T12:44:33;96389.88;;;23.25;100.00
11936;BME280;6027;48.576;9.180;2023-07-29T12:47:01;96392.25;;;23.31;100.00
11936;BME280;6027;48.576;9.180;2023-07-29T12:49:28;96407.13;;;23.34;100.00
11936;BME280;6027;48.576;9.180;2023-07-29T12:51:55;96402.56;;;23.24;100.00
11936;BME280;6027;48.576;9.180;2023-07-29T12:54:21;96393.13;;;23.12;100.00
11936;BME280;6027;48.576;9.180;2023-07-29T12:56:47;96410.66;;;23.19;100.00
11936;BME280;6027;48.576;9.180;2023-07-29T12:59:12;96400.13;;;23.18;100.00
11936;BME280;6027;48.576;9.180;2023-07-29T13:01:37;96399.81;;;23.34;98.36
11936;BME280;6027;48.576;9.180;2023-07-29T13:04:03;96399.00;;;23.39;95.98
11936;BME280;6027;48.576;9.180;2023-07-29T13:06:28;96403.84;;;23.42;95.72
11936;BME280;6027;48.576;9.180;2023-07-29T13:08:54;96411.66;;;23.54;100.00